sensor_id;sensor_type;location;lat;lon;timestamp;P1;durP1;ratioP1;P2;durP2;ratioP2
8574;SDS011;4325;42.520;27.448;2024-02-14T00:00:57;2.70;;;2.20;;
8574;SDS011;4325;42.520;27.448;2024-02-14T00:03:24;2.10;;;1.90;;
8574;SDS011;4325;42.520;27.448;2024-02-14T00:05:52;1.90;;;1.60;;
8574;SDS011;4325;42.520;27.448;2024-02-14T00:08:21;2.13;;;1.93;;
8574;SDS011;4325;42.520;27.448;2024-02-14T00:10:48;3.77;;;2.90;;
8574;SDS011;4325;42.520;27.448;2024-02-14T00:13:15;3.47;;;2.43;;
8574;SDS011;4325;42.520;27.448;2024-02-14T00:15:43;3.50;;;2.60;;
8574;SDS011;4325;42.520;27.448;2024-02-14T00:18:11;2.30;;;2.00;;
8574;SDS011;4325;42.520;27.448;2024-02-14T00:20:38;2.27;;;2.07;;
8574;SDS011;4325;42.520;27.448;2024-02-14T00:23:05;2.43;;;2.10;;
8574;SDS011;4325;42.520;27.448;2024-02-14T00:25:33;3.57;;;2.70;;
8574;SDS011;4325;42.520;27.448;2024-02-14T00:28:01;2.60;;;2.30;;
8574;SDS011;4325;42.520;27.448;2024-02-14T00:30:28;2.57;;;2.37;;
8574;SDS011;4325;42.520;27.448;2024-02-14T00:32:56;2.37;;;2.17;;
8574;SDS011;4325;42.520;27.448;2024-02-14T00:35:23;2.60;;;2.10;;
8574;SDS011;4325;42.520;27.448;2024-02-14T00:37:50;4.43;;;2.33;;
8574;SDS011;4325;42.520;27.448;2024-02-14T00:40:17;3.03;;;2.60;;
8574;SDS011;4325;42.520;27.448;2024-02-14T00:42:46;2.77;;;2.47;;
8574;SDS011;4325;42.520;27.448;2024-02-14T00:45:13;2.93;;;2.43;;
8574;SDS011;4325;42.520;27.448;2024-02-14T00:47:40;3.80;;;2.67;;
8574;SDS011;4325;42.520;27.448;2024-02-14T00:50:07;3.00;;;2.70;;
8574;SDS011;4325;42.520;27.448;2024-02-14T00:52:35;4.63;;;3.37;;
8574;SDS011;4325;42.520;27.448;2024-02-14T00:55:02;3.47;;;2.63;;
8574;SDS011;4325;42.520;27.448;2024-02-14T00:57:29;3.07;;;2.43;;
8574;SDS011;4325;42.520;27.448;2024-02-14T00:59:58;2.83;;;2.57;;
8574;SDS011;4325;42.520;27.448;2024-02-14T01:02:25;3.63;;;2.23;;
8574;SDS011;4325;42.520;27.448;2024-02-14T01:04:52;3.27;;;2.60;;
8574;SDS011;4325;42.520;27.448;2024-02-14T01:07:19;4.23;;;3.33;;
8574;SDS011;4325;42.520;27.448;2024-02-14T01:09:46;4.13;;;2.90;;
8574;SDS011;4325;42.520;27.448;2024-02-14T01:12:13;7.23;;;4.77;;
8574;SDS011;4325;42.520;27.448;2024-02-14T01:14:41;5.63;;;3.67;;
8574;SDS011;4325;42.520;27.448;2024-02-14T01:17:10;6.60;;;3.77;;
8574;SDS011;4325;42.520;27.448;2024-02-14T01:19:37;3.93;;;3.33;;
8574;SDS011;4325;42.520;27.448;2024-02-14T01:22:04;3.27;;;2.70;;
8574;SDS011;4325;42.520;27.448;2024-02-14T01:24:31;5.03;;;3.20;;
8574;SDS011;4325;42.520;27.448;2024-02-14T01:26:58;6.90;;;3.43;;
8574;SDS011;4325;42.520;27.448;2024-02-14T01:29:25;6.87;;;3.90;;
8574;SDS011;4325;42.520;27.448;2024-02-14T01:31:52;6.70;;;4.37;;
8574;SDS011;4325;42.520;27.448;2024-02-14T01:34:21;6.80;;;5.07;;
8574;SDS011;4325;42.520;27.448;2024-02-14T01:36:49;6.10;;;4.13;;
8574;SDS011;4325;42.520;27.448;2024-02-14T01:39:16;8.43;;;4.37;;
8574;SDS011;4325;42.520;27.448;2024-02-14T01:41:47;5.00;;;4.10;;
8574;SDS011;4325;42.520;27.448;2024-02-14T01:44:14;6.73;;;4.10;;
8574;SDS011;4325;42.520;27.448;2024-02-14T01:46:41;5.03;;;4.07;;
8574;SDS011;4325;42.520;27.448;2024-02-14T01:49:09;6.77;;;4.40;;
8574;SDS011;4325;42.520;27.448;2024-02-14T01:51:38;6.93;;;4.53;;
8574;SDS011;4325;42.520;27.448;2024-02-14T01:54:07;6.80;;;4.30;;
8574;SDS011;4325;42.520;27.448;2024-02-14T01:56:35;6.43;;;4.03;;
8574;SDS011;4325;42.520;27.448;2024-02-14T01:59:02;4.63;;;4.13;;
8574;SDS011;4325;42.520;27.448;2024-02-14T02:01:30;6.07;;;3.97;;
8574;SDS011;4325;42.520;27.448;2024-02-14T02:03:57;6.87;;;4.63;;
8574;SDS011;4325;42.520;27.448;2024-02-14T02:06:25;8.87;;;5.20;;
8574;SDS011;4325;42.520;27.448;2024-02-14T02:08:54;8.33;;;4.40;;
8574;SDS011;4325;42.520;27.448;2024-02-14T02:11:21;5.80;;;4.43;;
8574;SDS011;4325;42.520;27.448;2024-02-14T02:13:48;6.23;;;4.87;;
8574;SDS011;4325;42.520;27.448;2024-02-14T02:16:16;6.63;;;4.73;;
8574;SDS011;4325;42.520;27.448;2024-02-14T02:18:44;5.80;;;4.63;;
8574;SDS011;4325;42.520;27.448;2024-02-14T02:21:12;5.97;;;5.00;;
8574;SDS011;4325;42.520;27.448;2024-02-14T02:23:40;5.63;;;4.83;;
8574;SDS011;4325;42.520;27.448;2024-02-14T02:26:09;5.80;;;4.43;;
8574;SDS011;4325;42.520;27.448;2024-02-14T02:28:37;7.10;;;4.67;;
8574;SDS011;4325;42.520;27.448;2024-02-14T02:31:04;8.23;;;5.30;;
8574;SDS011;4325;42.520;27.448;2024-02-14T02:33:32;8.70;;;5.23;;
8574;SDS011;4325;42.520;27.448;2024-02-14T02:35:59;6.03;;;3.80;;
8574;SDS011;4325;42.520;27.448;2024-02-14T02:38:26;6.57;;;4.87;;
8574;SDS011;4325;42.520;27.448;2024-02-14T02:40:55;4.83;;;3.87;;
8574;SDS011;4325;42.520;27.448;2024-02-14T02:43:22;4.80;;;3.70;;
8574;SDS011;4325;42.520;27.448;2024-02-14T02:45:49;8.07;;;4.60;;
8574;SDS011;4325;42.520;27.448;2024-02-14T02:48:16;6.00;;;4.40;;
8574;SDS011;4325;42.520;27.448;2024-02-14T02:50:43;4.10;;;3.47;;
8574;SDS011;4325;42.520;27.448;2024-02-14T02:53:10;3.90;;;3.50;;
8574;SDS011;4325;42.520;27.448;2024-02-14T02:55:37;8.10;;;5.57;;
8574;SDS011;4325;42.520;27.448;2024-02-14T02:58:05;12.00;;;6.27;;
8574;SDS011;4325;42.520;27.448;2024-02-14T03:00:32;12.67;;;7.47;;
8574;SDS011;4325;42.520;27.448;2024-02-14T03:02:59;9.80;;;5.93;;
8574;SDS011;4325;42.520;27.448;2024-02-14T03:05:27;6.57;;;4.87;;
8574;SDS011;4325;42.520;27.448;2024-02-14T03:07:56;6.03;;;4.37;;
8574;SDS011;4325;42.520;27.448;2024-02-14T03:10:23;5.93;;;4.10;;
8574;SDS011;4325;42.520;27.448;2024-02-14T03:12:50;3.97;;;3.03;;
8574;SDS011;4325;42.520;27.448;2024-02-14T03:15:19;3.10;;;2.80;;
8574;SDS011;4325;42.520;27.448;2024-02-14T03:17:46;3.47;;;3.00;;
8574;SDS011;4325;42.520;27.448;2024-02-14T03:20:13;3.70;;;3.10;;
8574;SDS011;4325;42.520;27.448;2024-02-14T03:22:42;3.40;;;3.10;;
8574;SDS011;4325;42.520;27.448;2024-02-14T03:25:11;3.30;;;3.00;;
8574;SDS011;4325;42.520;27.448;2024-02-14T03:27:39;3.17;;;2.70;;
8574;SDS011;4325;42.520;27.448;2024-02-14T03:30:06;4.57;;;3.00;;
8574;SDS011;4325;42.520;27.448;2024-02-14T03:32:35;2.77;;;2.47;;
8574;SDS011;4325;42.520;27.448;2024-02-14T03:35:03;3.33;;;2.90;;
8574;SDS011;4325;42.520;27.448;2024-02-14T03:37:31;3.37;;;3.00;;
8574;SDS011;4325;42.520;27.448;2024-02-14T03:39:58;3.73;;;2.63;;
8574;SDS011;4325;42.520;27.448;2024-02-14T03:42:25;3.07;;;2.77;;
8574;SDS011;4325;42.520;27.448;2024-02-14T03:44:53;2.80;;;2.27;;
8574;SDS011;4325;42.520;27.448;2024-02-14T03:47:27;2.90;;;2.60;;
8574;SDS011;4325;42.520;27.448;2024-02-14T03:49:56;5.40;;;3.67;;
8574;SDS011;4325;42.520;27.448;2024-02-14T03:52:23;4.23;;;3.37;;
8574;SDS011;4325;42.520;27.448;2024-02-14T03:54:50;3.13;;;2.57;;
8574;SDS011;4325;42.520;27.448;2024-02-14T03:57:17;3.27;;;2.80;;
8574;SDS011;4325;42.520;27.448;2024-02-14T03:59:44;4.33;;;3.20;;
8574;SDS011;4325;42.520;27.448;2024-02-14T04:02:13;3.77;;;2.87;;
8574;SDS011;4325;42.520;27.448;2024-02-14T04:04:41;3.87;;;2.80;;
8574;SDS011;4325;42.520;27.448;2024-02-14T04:07:10;3.27;;;2.80;;
8574;SDS011;4325;42.520;27.448;2024-02-14T04:09:38;3.73;;;3.10;;
8574;SDS011;4325;42.520;27.448;2024-02-14T04:12:05;3.80;;;3.10;;
8574;SDS011;4325;42.520;27.448;2024-02-14T04:14:35;4.97;;;3.70;;
8574;SDS011;4325;42.520;27.448;2024-02-14T04:17:03;6.93;;;3.97;;
8574;SDS011;4325;42.520;27.448;2024-02-14T04:19:32;4.03;;;3.63;;
8574;SDS011;4325;42.520;27.448;2024-02-14T04:21:59;5.07;;;3.70;;
8574;SDS011;4325;42.520;27.448;2024-02-14T04:24:28;4.93;;;4.17;;
8574;SDS011;4325;42.520;27.448;2024-02-14T04:26:55;4.90;;;3.83;;
8574;SDS011;4325;42.520;27.448;2024-02-14T04:29:22;6.90;;;4.10;;
8574;SDS011;4325;42.520;27.448;2024-02-14T04:31:49;8.73;;;4.67;;
8574;SDS011;4325;42.520;27.448;2024-02-14T04:34:17;7.20;;;4.40;;
8574;SDS011;4325;42.520;27.448;2024-02-14T04:36:44;6.80;;;4.43;;
8574;SDS011;4325;42.520;27.448;2024-02-14T04:39:11;8.10;;;5.27;;
8574;SDS011;4325;42.520;27.448;2024-02-14T04:41:40;21.60;;;11.27;;
8574;SDS011;4325;42.520;27.448;2024-02-14T04:44:07;17.27;;;8.93;;
8574;SDS011;4325;42.520;27.448;2024-02-14T04:46:34;15.47;;;9.37;;
8574;SDS011;4325;42.520;27.448;2024-02-14T04:49:03;10.70;;;6.70;;
8574;SDS011;4325;42.520;27.448;2024-02-14T04:51:30;12.87;;;7.97;;
8574;SDS011;4325;42.520;27.448;2024-02-14T04:53:57;9.93;;;7.13;;
8574;SDS011;4325;42.520;27.448;2024-02-14T04:56:24;7.73;;;5.33;;
8574;SDS011;4325;42.520;27.448;2024-02-14T04:58:53;8.37;;;5.53;;
8574;SDS011;4325;42.520;27.448;2024-02-14T05:01:21;6.13;;;4.50;;
8574;SDS011;4325;42.520;27.448;2024-02-14T05:03:48;7.17;;;5.30;;
8574;SDS011;4325;42.520;27.448;2024-02-14T05:06:15;6.20;;;4.83;;
8574;SDS011;4325;42.520;27.448;2024-02-14T05:08:43;6.23;;;5.23;;
8574;SDS011;4325;42.520;27.448;2024-02-14T05:11:10;6.20;;;4.60;;
8574;SDS011;4325;42.520;27.448;2024-02-14T05:13:37;6.00;;;4.43;;
8574;SDS011;4325;42.520;27.448;2024-02-14T05:16:08;6.03;;;4.63;;
8574;SDS011;4325;42.520;27.448;2024-02-14T05:18:36;6.83;;;4.77;;
8574;SDS011;4325;42.520;27.448;2024-02-14T05:21:05;5.90;;;4.67;;
8574;SDS011;4325;42.520;27.448;2024-02-14T05:23:33;6.03;;;4.57;;
8574;SDS011;4325;42.520;27.448;2024-02-14T05:26:00;5.83;;;4.70;;
8574;SDS011;4325;42.520;27.448;2024-02-14T05:28:28;6.53;;;4.80;;
8574;SDS011;4325;42.520;27.448;2024-02-14T05:30:55;5.83;;;4.73;;
8574;SDS011;4325;42.520;27.448;2024-02-14T05:33:25;7.33;;;4.47;;
8574;SDS011;4325;42.520;27.448;2024-02-14T05:35:52;5.97;;;4.70;;
8574;SDS011;4325;42.520;27.448;2024-02-14T05:38:19;5.37;;;4.27;;
8574;SDS011;4325;42.520;27.448;2024-02-14T05:40:47;6.17;;;4.30;;
8574;SDS011;4325;42.520;27.448;2024-02-14T05:43:14;6.13;;;4.53;;
8574;SDS011;4325;42.520;27.448;2024-02-14T05:45:43;6.83;;;5.47;;
8574;SDS011;4325;42.520;27.448;2024-02-14T05:48:10;5.37;;;4.50;;
8574;SDS011;4325;42.520;27.448;2024-02-14T05:50:39;5.13;;;4.53;;
8574;SDS011;4325;42.520;27.448;2024-02-14T05:53:06;5.07;;;4.37;;
8574;SDS011;4325;42.520;27.448;2024-02-14T05:55:33;5.37;;;4.10;;
8574;SDS011;4325;42.520;27.448;2024-02-14T05:58:00;5.33;;;4.13;;
8574;SDS011;4325;42.520;27.448;2024-02-14T06:00:27;12.93;;;4.70;;
8574;SDS011;4325;42.520;27.448;2024-02-14T06:02:54;9.13;;;5.13;;
8574;SDS011;4325;42.520;27.448;2024-02-14T06:05:22;4.13;;;3.70;;
8574;SDS011;4325;42.520;27.448;2024-02-14T06:07:50;4.00;;;3.40;;
8574;SDS011;4325;42.520;27.448;2024-02-14T06:10:17;4.70;;;3.33;;
8574;SDS011;4325;42.520;27.448;2024-02-14T06:12:45;3.47;;;2.87;;
8574;SDS011;4325;42.520;27.448;2024-02-14T06:15:13;3.83;;;3.10;;
8574;SDS011;4325;42.520;27.448;2024-02-14T06:17:40;5.40;;;3.50;;
8574;SDS011;4325;42.520;27.448;2024-02-14T06:20:07;4.07;;;3.13;;
8574;SDS011;4325;42.520;27.448;2024-02-14T06:22:35;4.20;;;3.40;;
8574;SDS011;4325;42.520;27.448;2024-02-14T06:25:04;7.70;;;2.90;;
8574;SDS011;4325;42.520;27.448;2024-02-14T06:27:31;3.33;;;2.83;;
8574;SDS011;4325;42.520;27.448;2024-02-14T06:29:58;3.30;;;2.60;;
8574;SDS011;4325;42.520;27.448;2024-02-14T06:32:26;6.67;;;3.10;;
8574;SDS011;4325;42.520;27.448;2024-02-14T06:34:53;8.03;;;5.23;;
8574;SDS011;4325;42.520;27.448;2024-02-14T06:37:20;8.43;;;5.57;;
8574;SDS011;4325;42.520;27.448;2024-02-14T06:39:47;4.50;;;4.03;;
8574;SDS011;4325;42.520;27.448;2024-02-14T06:42:16;5.60;;;4.33;;
8574;SDS011;4325;42.520;27.448;2024-02-14T06:44:44;4.17;;;3.40;;
8574;SDS011;4325;42.520;27.448;2024-02-14T06:47:12;4.57;;;2.97;;
8574;SDS011;4325;42.520;27.448;2024-02-14T06:49:39;6.50;;;2.97;;
8574;SDS011;4325;42.520;27.448;2024-02-14T06:52:06;3.97;;;3.00;;
8574;SDS011;4325;42.520;27.448;2024-02-14T06:54:33;2.67;;;2.47;;
8574;SDS011;4325;42.520;27.448;2024-02-14T06:57:00;3.20;;;2.60;;
8574;SDS011;4325;42.520;27.448;2024-02-14T06:59:29;2.30;;;2.10;;
8574;SDS011;4325;42.520;27.448;2024-02-14T07:01:56;2.77;;;2.50;;
8574;SDS011;4325;42.520;27.448;2024-02-14T07:04:24;2.10;;;1.90;;
8574;SDS011;4325;42.520;27.448;2024-02-14T07:06:52;3.53;;;2.20;;
8574;SDS011;4325;42.520;27.448;2024-02-14T07:09:19;3.13;;;2.57;;
8574;SDS011;4325;42.520;27.448;2024-02-14T07:11:47;3.20;;;2.33;;
8574;SDS011;4325;42.520;27.448;2024-02-14T07:14:14;2.83;;;2.50;;
8574;SDS011;4325;42.520;27.448;2024-02-14T07:16:42;3.60;;;2.30;;
8574;SDS011;4325;42.520;27.448;2024-02-14T07:19:09;2.70;;;2.37;;
8574;SDS011;4325;42.520;27.448;2024-02-14T07:21:37;4.20;;;2.30;;
8574;SDS011;4325;42.520;27.448;2024-02-14T07:24:04;2.80;;;2.07;;
8574;SDS011;4325;42.520;27.448;2024-02-14T07:26:31;3.17;;;2.33;;
8574;SDS011;4325;42.520;27.448;2024-02-14T07:28:58;3.37;;;2.53;;
8574;SDS011;4325;42.520;27.448;2024-02-14T07:31:28;5.53;;;2.10;;
8574;SDS011;4325;42.520;27.448;2024-02-14T07:34:00;7.93;;;2.73;;
8574;SDS011;4325;42.520;27.448;2024-02-14T07:36:28;1.80;;;1.70;;
8574;SDS011;4325;42.520;27.448;2024-02-14T07:38:55;2.50;;;2.27;;
8574;SDS011;4325;42.520;27.448;2024-02-14T07:41:22;9.77;;;2.90;;
8574;SDS011;4325;42.520;27.448;2024-02-14T07:43:49;2.33;;;2.13;;
8574;SDS011;4325;42.520;27.448;2024-02-14T07:46:18;2.30;;;2.10;;
8574;SDS011;4325;42.520;27.448;2024-02-14T07:48:45;2.10;;;1.90;;
8574;SDS011;4325;42.520;27.448;2024-02-14T07:51:15;1.77;;;1.60;;
8574;SDS011;4325;42.520;27.448;2024-02-14T07:53:42;2.43;;;2.03;;
8574;SDS011;4325;42.520;27.448;2024-02-14T07:56:09;2.37;;;2.07;;
8574;SDS011;4325;42.520;27.448;2024-02-14T07:58:36;2.70;;;2.27;;
8574;SDS011;4325;42.520;27.448;2024-02-14T08:01:03;3.67;;;2.70;;
8574;SDS011;4325;42.520;27.448;2024-02-14T08:03:31;2.53;;;2.30;;
8574;SDS011;4325;42.520;27.448;2024-02-14T08:05:59;2.27;;;1.80;;
8574;SDS011;4325;42.520;27.448;2024-02-14T08:08:27;1.60;;;1.50;;
8574;SDS011;4325;42.520;27.448;2024-02-14T08:10:54;2.10;;;1.90;;
8574;SDS011;4325;42.520;27.448;2024-02-14T08:13:25;2.20;;;2.00;;
8574;SDS011;4325;42.520;27.448;2024-02-14T08:15:52;2.10;;;1.90;;
8574;SDS011;4325;42.520;27.448;2024-02-14T08:18:19;2.30;;;1.93;;
8574;SDS011;4325;42.520;27.448;2024-02-14T08:20:46;3.47;;;2.20;;
8574;SDS011;4325;42.520;27.448;2024-02-14T08:23:13;3.13;;;2.27;;
8574;SDS011;4325;42.520;27.448;2024-02-14T08:25:41;2.33;;;2.00;;
8574;SDS011;4325;42.520;27.448;2024-02-14T08:28:09;2.27;;;1.97;;
8574;SDS011;4325;42.520;27.448;2024-02-14T08:30:36;1.67;;;1.57;;
8574;SDS011;4325;42.520;27.448;2024-02-14T08:33:03;3.10;;;2.20;;
8574;SDS011;4325;42.520;27.448;2024-02-14T08:35:30;2.27;;;2.10;;
8574;SDS011;4325;42.520;27.448;2024-02-14T08:37:58;4.03;;;2.00;;
8574;SDS011;4325;42.520;27.448;2024-02-14T08:40:25;3.50;;;1.77;;
8574;SDS011;4325;42.520;27.448;2024-02-14T08:42:53;2.03;;;1.70;;
8574;SDS011;4325;42.520;27.448;2024-02-14T08:45:20;1.53;;;1.43;;
8574;SDS011;4325;42.520;27.448;2024-02-14T08:47:48;4.33;;;1.70;;
8574;SDS011;4325;42.520;27.448;2024-02-14T08:50:15;5.27;;;1.77;;
8574;SDS011;4325;42.520;27.448;2024-02-14T08:52:42;4.73;;;1.90;;
8574;SDS011;4325;42.520;27.448;2024-02-14T08:55:09;1.77;;;1.50;;
8574;SDS011;4325;42.520;27.448;2024-02-14T08:57:42;1.93;;;1.43;;
8574;SDS011;4325;42.520;27.448;2024-02-14T09:00:12;2.10;;;1.50;;
8574;SDS011;4325;42.520;27.448;2024-02-14T09:02:40;2.10;;;1.57;;
8574;SDS011;4325;42.520;27.448;2024-02-14T09:05:07;1.50;;;1.40;;
8574;SDS011;4325;42.520;27.448;2024-02-14T09:07:35;1.70;;;1.60;;
8574;SDS011;4325;42.520;27.448;2024-02-14T09:10:02;1.87;;;1.70;;
8574;SDS011;4325;42.520;27.448;2024-02-14T09:12:30;2.87;;;1.70;;
8574;SDS011;4325;42.520;27.448;2024-02-14T09:14:58;5.07;;;1.63;;
8574;SDS011;4325;42.520;27.448;2024-02-14T09:17:27;1.50;;;1.40;;
8574;SDS011;4325;42.520;27.448;2024-02-14T09:19:54;1.70;;;1.60;;
8574;SDS011;4325;42.520;27.448;2024-02-14T09:22:21;2.10;;;1.77;;
8574;SDS011;4325;42.520;27.448;2024-02-14T09:24:48;1.97;;;1.50;;
8574;SDS011;4325;42.520;27.448;2024-02-14T09:27:17;2.43;;;1.27;;
8574;SDS011;4325;42.520;27.448;2024-02-14T09:29:44;1.73;;;1.33;;
8574;SDS011;4325;42.520;27.448;2024-02-14T09:32:10;4.80;;;1.63;;
8574;SDS011;4325;42.520;27.448;2024-02-14T09:34:39;1.93;;;1.73;;
8574;SDS011;4325;42.520;27.448;2024-02-14T09:37:06;3.00;;;1.40;;
8574;SDS011;4325;42.520;27.448;2024-02-14T09:39:33;1.73;;;1.20;;
8574;SDS011;4325;42.520;27.448;2024-02-14T09:42:01;2.73;;;1.40;;
8574;SDS011;4325;42.520;27.448;2024-02-14T09:44:34;1.70;;;1.40;;
8574;SDS011;4325;42.520;27.448;2024-02-14T09:47:02;3.30;;;1.27;;
8574;SDS011;4325;42.520;27.448;2024-02-14T09:49:31;3.67;;;2.17;;
8574;SDS011;4325;42.520;27.448;2024-02-14T09:52:02;2.57;;;2.10;;
8574;SDS011;4325;42.520;27.448;2024-02-14T09:54:31;1.63;;;1.50;;
8574;SDS011;4325;42.520;27.448;2024-02-14T09:56:59;2.63;;;1.80;;
8574;SDS011;4325;42.520;27.448;2024-02-14T09:59:28;1.73;;;1.57;;
8574;SDS011;4325;42.520;27.448;2024-02-14T10:01:56;1.83;;;1.47;;
8574;SDS011;4325;42.520;27.448;2024-02-14T10:04:23;1.27;;;1.17;;
8574;SDS011;4325;42.520;27.448;2024-02-14T10:06:50;1.30;;;1.20;;
8574;SDS011;4325;42.520;27.448;2024-02-14T10:09:20;1.20;;;1.10;;
8574;SDS011;4325;42.520;27.448;2024-02-14T10:11:48;1.53;;;1.30;;
8574;SDS011;4325;42.520;27.448;2024-02-14T10:14:15;3.30;;;1.33;;
8574;SDS011;4325;42.520;27.448;2024-02-14T10:16:42;3.67;;;1.57;;
8574;SDS011;4325;42.520;27.448;2024-02-14T10:19:16;9.03;;;2.87;;
8574;SDS011;4325;42.520;27.448;2024-02-14T10:21:54;5.50;;;3.40;;
8574;SDS011;4325;42.520;27.448;2024-02-14T10:24:24;4.40;;;3.20;;
8574;SDS011;4325;42.520;27.448;2024-02-14T10:26:52;2.70;;;2.10;;
8574;SDS011;4325;42.520;27.448;2024-02-14T10:29:23;2.00;;;1.80;;
8574;SDS011;4325;42.520;27.448;2024-02-14T10:31:50;4.13;;;1.90;;
8574;SDS011;4325;42.520;27.448;2024-02-14T10:34:18;4.53;;;1.70;;
8574;SDS011;4325;42.520;27.448;2024-02-14T10:36:52;1.80;;;1.50;;
8574;SDS011;4325;42.520;27.448;2024-02-14T10:39:22;2.93;;;1.10;;
8574;SDS011;4325;42.520;27.448;2024-02-14T10:41:56;1.20;;;1.10;;
8574;SDS011;4325;42.520;27.448;2024-02-14T10:44:23;1.67;;;1.10;;
8574;SDS011;4325;42.520;27.448;2024-02-14T10:46:50;1.27;;;1.17;;
8574;SDS011;4325;42.520;27.448;2024-02-14T10:49:22;2.23;;;1.30;;
8574;SDS011;4325;42.520;27.448;2024-02-14T10:51:53;1.57;;;1.23;;
8574;SDS011;4325;42.520;27.448;2024-02-14T10:54:25;1.00;;;1.00;;
8574;SDS011;4325;42.520;27.448;2024-02-14T10:56:54;1.00;;;1.00;;
8574;SDS011;4325;42.520;27.448;2024-02-14T10:59:24;1.57;;;1.00;;
8574;SDS011;4325;42.520;27.448;2024-02-14T11:01:53;2.93;;;1.30;;
8574;SDS011;4325;42.520;27.448;2024-02-14T11:04:22;4.20;;;1.20;;
8574;SDS011;4325;42.520;27.448;2024-02-14T11:06:52;1.10;;;1.00;;
8574;SDS011;4325;42.520;27.448;2024-02-14T11:09:20;1.00;;;1.00;;
8574;SDS011;4325;42.520;27.448;2024-02-14T11:11:48;3.13;;;1.43;;
8574;SDS011;4325;42.520;27.448;2024-02-14T11:14:15;4.23;;;1.40;;
8574;SDS011;4325;42.520;27.448;2024-02-14T11:16:45;1.10;;;1.00;;
8574;SDS011;4325;42.520;27.448;2024-02-14T11:19:12;1.40;;;1.30;;
8574;SDS011;4325;42.520;27.448;2024-02-14T11:21:41;3.43;;;1.20;;
8574;SDS011;4325;42.520;27.448;2024-02-14T11:24:10;1.57;;;1.13;;
8574;SDS011;4325;42.520;27.448;2024-02-14T11:26:38;2.93;;;1.03;;
8574;SDS011;4325;42.520;27.448;2024-02-14T11:29:07;4.03;;;1.03;;
8574;SDS011;4325;42.520;27.448;2024-02-14T11:31:40;1.23;;;1.13;;
8574;SDS011;4325;42.520;27.448;2024-02-14T11:34:08;1.93;;;1.33;;
8574;SDS011;4325;42.520;27.448;2024-02-14T11:36:37;3.43;;;1.60;;
8574;SDS011;4325;42.520;27.448;2024-02-14T11:39:05;2.40;;;1.43;;
8574;SDS011;4325;42.520;27.448;2024-02-14T11:41:32;1.83;;;1.40;;
8574;SDS011;4325;42.520;27.448;2024-02-14T11:44:00;1.23;;;1.17;;
8574;SDS011;4325;42.520;27.448;2024-02-14T11:46:31;1.20;;;1.10;;
8574;SDS011;4325;42.520;27.448;2024-02-14T11:48:58;1.47;;;1.00;;
8574;SDS011;4325;42.520;27.448;2024-02-14T11:51:26;1.53;;;1.10;;
8574;SDS011;4325;42.520;27.448;2024-02-14T11:53:54;1.60;;;1.20;;
8574;SDS011;4325;42.520;27.448;2024-02-14T11:56:21;1.50;;;1.40;;
8574;SDS011;4325;42.520;27.448;2024-02-14T11:58:48;6.17;;;1.73;;
8574;SDS011;4325;42.520;27.448;2024-02-14T12:01:16;2.63;;;1.50;;
8574;SDS011;4325;42.520;27.448;2024-02-14T12:03:46;1.57;;;1.47;;
8574;SDS011;4325;42.520;27.448;2024-02-14T12:06:13;1.93;;;1.30;;
8574;SDS011;4325;42.520;27.448;2024-02-14T12:08:41;1.50;;;1.40;;
8574;SDS011;4325;42.520;27.448;2024-02-14T12:11:08;1.20;;;1.10;;
8574;SDS011;4325;42.520;27.448;2024-02-14T12:13:35;1.90;;;1.30;;
8574;SDS011;4325;42.520;27.448;2024-02-14T12:16:08;14.07;;;1.53;;
8574;SDS011;4325;42.520;27.448;2024-02-14T12:18:36;1.93;;;1.83;;
8574;SDS011;4325;42.520;27.448;2024-02-14T12:21:06;4.83;;;1.40;;
8574;SDS011;4325;42.520;27.448;2024-02-14T12:23:34;2.30;;;1.20;;
8574;SDS011;4325;42.520;27.448;2024-02-14T12:26:01;2.10;;;1.20;;
8574;SDS011;4325;42.520;27.448;2024-02-14T12:28:29;1.33;;;1.23;;
8574;SDS011;4325;42.520;27.448;2024-02-14T12:30:57;1.30;;;1.20;;
8574;SDS011;4325;42.520;27.448;2024-02-14T12:33:24;2.10;;;1.20;;
8574;SDS011;4325;42.520;27.448;2024-02-14T12:35:53;1.10;;;1.10;;
8574;SDS011;4325;42.520;27.448;2024-02-14T12:38:23;2.20;;;1.10;;
8574;SDS011;4325;42.520;27.448;2024-02-14T12:40:51;2.83;;;1.00;;
8574;SDS011;4325;42.520;27.448;2024-02-14T12:43:19;2.50;;;1.17;;
8574;SDS011;4325;42.520;27.448;2024-02-14T12:45:46;1.40;;;1.27;;
8574;SDS011;4325;42.520;27.448;2024-02-14T12:48:14;3.00;;;1.30;;
8574;SDS011;4325;42.520;27.448;2024-02-14T12:50:49;1.57;;;1.20;;
8574;SDS011;4325;42.520;27.448;2024-02-14T12:53:17;1.10;;;1.10;;
8574;SDS011;4325;42.520;27.448;2024-02-14T12:55:46;1.70;;;1.40;;
8574;SDS011;4325;42.520;27.448;2024-02-14T12:58:13;1.50;;;1.40;;
8574;SDS011;4325;42.520;27.448;2024-02-14T13:00:41;3.20;;;1.33;;
8574;SDS011;4325;42.520;27.448;2024-02-14T13:03:10;1.97;;;1.43;;
8574;SDS011;4325;42.520;27.448;2024-02-14T13:05:37;1.50;;;1.13;;
8574;SDS011;4325;42.520;27.448;2024-02-14T13:08:04;1.23;;;1.10;;
8574;SDS011;4325;42.520;27.448;2024-02-14T13:10:32;1.50;;;1.27;;
8574;SDS011;4325;42.520;27.448;2024-02-14T13:13:00;1.87;;;1.40;;
8574;SDS011;4325;42.520;27.448;2024-02-14T13:15:27;1.43;;;1.23;;
8574;SDS011;4325;42.520;27.448;2024-02-14T13:17:55;1.30;;;1.20;;
8574;SDS011;4325;42.520;27.448;2024-02-14T13:20:24;1.57;;;1.47;;
8574;SDS011;4325;42.520;27.448;2024-02-14T13:22:51;1.87;;;1.40;;
8574;SDS011;4325;42.520;27.448;2024-02-14T13:25:18;1.83;;;1.30;;
8574;SDS011;4325;42.520;27.448;2024-02-14T13:27:46;2.37;;;1.40;;
8574;SDS011;4325;42.520;27.448;2024-02-14T13:30:15;1.40;;;1.30;;
8574;SDS011;4325;42.520;27.448;2024-02-14T13:32:44;1.30;;;1.20;;
8574;SDS011;4325;42.520;27.448;2024-02-14T13:35:11;1.30;;;1.20;;
8574;SDS011;4325;42.520;27.448;2024-02-14T13:37:38;1.37;;;1.23;;
8574;SDS011;4325;42.520;27.448;2024-02-14T13:40:06;4.70;;;1.53;;
8574;SDS011;4325;42.520;27.448;2024-02-14T13:42:35;3.30;;;1.30;;
8574;SDS011;4325;42.520;27.448;2024-02-14T13:45:03;1.33;;;1.03;;
8574;SDS011;4325;42.520;27.448;2024-02-14T13:47:32;2.93;;;1.40;;
8574;SDS011;4325;42.520;27.448;2024-02-14T13:50:00;1.13;;;1.00;;
8574;SDS011;4325;42.520;27.448;2024-02-14T13:52:29;3.33;;;1.13;;
8574;SDS011;4325;42.520;27.448;2024-02-14T13:54:56;1.93;;;1.20;;
8574;SDS011;4325;42.520;27.448;2024-02-14T13:57:23;1.23;;;1.13;;
8574;SDS011;4325;42.520;27.448;2024-02-14T13:59:50;2.17;;;2.00;;
8574;SDS011;4325;42.520;27.448;2024-02-14T14:02:19;1.90;;;1.70;;
8574;SDS011;4325;42.520;27.448;2024-02-14T14:04:47;1.60;;;1.50;;
8574;SDS011;4325;42.520;27.448;2024-02-14T14:07:14;1.73;;;1.60;;
8574;SDS011;4325;42.520;27.448;2024-02-14T14:09:41;3.73;;;1.40;;
8574;SDS011;4325;42.520;27.448;2024-02-14T14:12:08;1.60;;;1.20;;
8574;SDS011;4325;42.520;27.448;2024-02-14T14:14:36;1.50;;;1.40;;
8574;SDS011;4325;42.520;27.448;2024-02-14T14:17:03;1.73;;;1.50;;
8574;SDS011;4325;42.520;27.448;2024-02-14T14:19:30;6.00;;;1.60;;
8574;SDS011;4325;42.520;27.448;2024-02-14T14:21:59;1.63;;;1.40;;
8574;SDS011;4325;42.520;27.448;2024-02-14T14:24:25;10.33;;;1.93;;
8574;SDS011;4325;42.520;27.448;2024-02-14T14:26:55;1.30;;;1.20;;
8574;SDS011;4325;42.520;27.448;2024-02-14T14:29:22;2.80;;;1.40;;
8574;SDS011;4325;42.520;27.448;2024-02-14T14:31:49;1.50;;;1.40;;
8574;SDS011;4325;42.520;27.448;2024-02-14T14:34:16;2.60;;;1.60;;
8574;SDS011;4325;42.520;27.448;2024-02-14T14:36:44;3.60;;;1.37;;
8574;SDS011;4325;42.520;27.448;2024-02-14T14:39:13;1.53;;;1.27;;
8574;SDS011;4325;42.520;27.448;2024-02-14T14:41:40;3.13;;;1.50;;
8574;SDS011;4325;42.520;27.448;2024-02-14T14:44:08;2.63;;;1.97;;
8574;SDS011;4325;42.520;27.448;2024-02-14T14:46:37;2.37;;;1.57;;
8574;SDS011;4325;42.520;27.448;2024-02-14T14:49:07;2.77;;;2.00;;
8574;SDS011;4325;42.520;27.448;2024-02-14T14:51:35;7.07;;;2.10;;
8574;SDS011;4325;42.520;27.448;2024-02-14T14:54:03;1.27;;;1.17;;
8574;SDS011;4325;42.520;27.448;2024-02-14T14:56:31;11.63;;;1.50;;
8574;SDS011;4325;42.520;27.448;2024-02-14T14:58:59;1.87;;;1.67;;
8574;SDS011;4325;42.520;27.448;2024-02-14T15:01:28;1.40;;;1.20;;
8574;SDS011;4325;42.520;27.448;2024-02-14T15:03:55;6.40;;;1.50;;